Time;durP1;ratioP1;P1;durP2;ratioP2;P2;SDS_P1;SDS_P2;PMS_P1;PMS_P2;Temp;Humidity;BMP_temperature;BMP_pressure;BME280_temperature;BME280_humidity;BME280_pressure;Samples;Min_cycle;Max_cycle;Signal;HPM_P1;HPM_P2
2022/03/11 00:01:29;;;;;;;2.60;2.40;;;;;;;;;;5158649;27;20224;-67
2022/03/11 00:04:16;;;;;;;2.50;2.40;;;;;;;;;;5151602;27;20197;-68
2022/03/11 00:07:04;;;;;;;2.43;2.33;;;;;;;;;;5155528;27;20209;-70
2022/03/11 00:09:51;;;;;;;2.17;2.07;;;;;;;;;;5150356;27;20257;-68
2022/03/11 00:12:39;;;;;;;2.50;2.40;;;;;;;;;;5149266;27;20202;-68
2022/03/11 00:15:27;;;;;;;2.33;2.23;;;;;;;;;;5151902;27;20200;-69
2022/03/11 00:18:14;;;;;;;2.60;2.40;;;;;;;;;;5161626;27;20326;-68
2022/03/11 00:21:01;;;;;;;2.37;2.27;;;;;;;;;;5161811;27;20725;-67
2022/03/11 00:23:48;;;;;;;2.20;2.10;;;;;;;;;;5160607;27;20735;-68
2022/03/11 00:26:35;;;;;;;2.20;2.10;;;;;;;;;;5154304;27;20599;-67
2022/03/11 00:29:23;;;;;;;2.10;2.00;;;;;;;;;;5158696;27;20215;-68
2022/03/11 00:32:11;;;;;;;2.23;2.13;;;;;;;;;;5157307;27;20210;-68
2022/03/11 00:34:58;;;;;;;2.30;2.20;;;;;;;;;;5158700;27;20200;-68
2022/03/11 00:37:45;;;;;;;2.40;2.30;;;;;;;;;;5155562;27;20204;-67
2022/03/11 00:40:32;;;;;;;2.40;2.30;;;;;;;;;;5151658;27;20278;-68
2022/03/11 00:43:19;;;;;;;2.40;2.30;;;;;;;;;;5162949;27;20311;-67
2022/03/11 00:46:07;;;;;;;2.57;2.40;;;;;;;;;;5156123;27;20212;-68
2022/03/11 00:48:54;;;;;;;2.53;2.40;;;;;;;;;;5156788;27;20194;-68
2022/03/11 00:51:41;;;;;;;2.13;2.03;;;;;;;;;;5148579;27;20281;-68
2022/03/11 00:54:28;;;;;;;2.53;2.43;;;;;;;;;;5156362;27;20777;-67
2022/03/11 00:57:16;;;;;;;2.40;2.30;;;;;;;;;;5156677;27;20247;-68
2022/03/11 01:00:04;;;;;;;2.30;2.20;;;;;;;;;;5156294;27;20291;-68
2022/03/11 01:02:54;;;;;;;2.60;2.50;;;;;;;;;;5155811;27;20209;-69
2022/03/11 01:05:40;;;;;;;2.43;2.33;;;;;;;;;;5156614;27;20258;-68
2022/03/11 01:08:27;;;;;;;2.60;2.40;;;;;;;;;;5157034;27;20612;-68
2022/03/11 01:11:14;;;;;;;2.30;2.20;;;;;;;;;;5149078;27;20733;-67
2022/03/11 01:14:01;;;;;;;2.17;2.07;;;;;;;;;;5156907;27;20255;-68
2022/03/11 01:16:48;;;;;;;2.20;2.10;;;;;;;;;;5151177;27;20209;-67
2022/03/11 01:19:37;;;;;;;2.27;2.17;;;;;;;;;;5154525;27;20252;-67
2022/03/11 01:22:24;;;;;;;2.77;2.57;;;;;;;;;;5150890;27;20215;-69
2022/03/11 01:25:10;;;;;;;2.00;1.90;;;;;;;;;;5152973;27;20307;-67
2022/03/11 01:27:57;;;;;;;2.63;2.43;;;;;;;;;;5164566;27;20678;-72
2022/03/11 01:30:44;;;;;;;2.70;2.57;;;;;;;;;;5151698;27;20212;-68
2022/03/11 01:33:31;;;;;;;2.60;2.50;;;;;;;;;;5146426;27;20212;-67
2022/03/11 01:36:20;;;;;;;2.60;2.50;;;;;;;;;;5155768;27;20199;-67
2022/03/11 01:39:07;;;;;;;2.10;2.00;;;;;;;;;;5158243;27;20204;-68
2022/03/11 01:41:54;;;;;;;2.63;2.43;;;;;;;;;;5155518;27;20239;-68
2022/03/11 01:44:41;;;;;;;2.70;2.50;;;;;;;;;;5158733;27;20240;-68
2022/03/11 01:47:28;;;;;;;2.53;2.30;;;;;;;;;;5154941;27;20347;-68
2022/03/11 01:50:15;;;;;;;2.77;2.57;;;;;;;;;;5156584;27;20661;-67
2022/03/11 01:53:03;;;;;;;2.90;2.73;;;;;;;;;;5150231;27;20371;-68
2022/03/11 01:55:50;;;;;;;2.33;2.23;;;;;;;;;;5158078;27;20203;-68
2022/03/11 01:58:37;;;;;;;2.37;2.27;;;;;;;;;;5157672;27;20292;-67
2022/03/11 02:01:25;;;;;;;2.80;2.60;;;;;;;;;;5156561;27;20281;-67
2022/03/11 02:04:12;;;;;;;2.30;2.20;;;;;;;;;;5160999;27;20243;-67
2022/03/11 02:06:59;;;;;;;2.40;2.30;;;;;;;;;;5161669;27;20310;-67
2022/03/11 02:09:48;;;;;;;2.40;2.30;;;;;;;;;;5165861;27;20294;-68
2022/03/11 02:12:35;;;;;;;2.20;2.10;;;;;;;;;;5158825;27;20280;-68
2022/03/11 02:15:22;;;;;;;2.20;2.10;;;;;;;;;;5160182;27;20228;-68
2022/03/11 02:18:09;;;;;;;2.40;2.30;;;;;;;;;;5153447;27;20677;-68
2022/03/11 02:20:56;;;;;;;2.47;2.37;;;;;;;;;;5159937;27;20196;-68
2022/03/11 02:23:46;;;;;;;2.60;2.40;;;;;;;;;;5157799;27;20745;-69
2022/03/11 02:26:33;;;;;;;2.47;2.27;;;;;;;;;;5150460;27;20232;-68
2022/03/11 02:29:20;;;;;;;2.60;2.50;;;;;;;;;;5166348;27;20240;-68
2022/03/11 02:32:09;;;;;;;2.63;2.50;;;;;;;;;;5157355;27;20295;-69
2022/03/11 02:34:55;;;;;;;2.70;2.50;;;;;;;;;;5167789;27;20205;-68
2022/03/11 02:37:43;;;;;;;2.60;2.50;;;;;;;;;;5154223;27;20204;-68
2022/03/11 02:40:32;;;;;;;2.50;2.40;;;;;;;;;;5155042;27;20214;-70
2022/03/11 02:43:19;;;;;;;2.30;2.20;;;;;;;;;;5150725;27;20641;-68
2022/03/11 02:46:06;;;;;;;2.60;2.50;;;;;;;;;;5151672;27;20229;-68
2022/03/11 02:48:53;;;;;;;2.67;2.20;;;;;;;;;;5157926;27;20610;-68
2022/03/11 02:51:40;;;;;;;2.50;2.40;;;;;;;;;;5157842;27;20208;-67
2022/03/11 02:54:27;;;;;;;2.40;2.30;;;;;;;;;;5155647;27;20247;-68
2022/03/11 02:57:15;;;;;;;2.50;2.40;;;;;;;;;;5147397;27;20330;-68
2022/03/11 03:00:03;;;;;;;2.70;2.50;;;;;;;;;;5156577;27;20271;-68
2022/03/11 03:02:50;;;;;;;2.70;2.60;;;;;;;;;;5158677;27;20228;-68
2022/03/11 03:05:37;;;;;;;2.53;2.43;;;;;;;;;;5159797;27;20222;-67
2022/03/11 03:08:24;;;;;;;2.77;2.60;;;;;;;;;;5164478;27;20228;-68
2022/03/11 03:11:11;;;;;;;2.90;2.70;;;;;;;;;;5154194;27;20209;-68
2022/03/11 03:13:59;;;;;;;2.17;2.07;;;;;;;;;;5155147;27;20201;-67
2022/03/11 03:16:46;;;;;;;2.77;2.57;;;;;;;;;;5150478;27;20258;-67
2022/03/11 03:19:35;;;;;;;2.40;2.30;;;;;;;;;;5151427;27;20239;-68
2022/03/11 03:22:22;;;;;;;2.70;2.50;;;;;;;;;;5157002;27;20198;-67
2022/03/11 03:25:09;;;;;;;2.40;2.30;;;;;;;;;;5155161;27;20605;-74
2022/03/11 03:27:56;;;;;;;2.60;2.50;;;;;;;;;;5154598;27;20209;-67
2022/03/11 03:30:45;;;;;;;2.67;2.50;;;;;;;;;;5157102;27;20306;-68
2022/03/11 03:33:32;;;;;;;2.57;2.47;;;;;;;;;;5154474;27;20236;-68
2022/03/11 03:36:19;;;;;;;2.53;2.43;;;;;;;;;;5156419;27;20250;-68
2022/03/11 03:39:06;;;;;;;2.60;2.40;;;;;;;;;;5158493;27;20663;-68
2022/03/11 03:41:53;;;;;;;2.47;2.37;;;;;;;;;;5153429;27;20302;-68
2022/03/11 03:44:40;;;;;;;2.90;2.70;;;;;;;;;;5151749;27;20317;-68
2022/03/11 03:47:28;;;;;;;2.50;2.40;;;;;;;;;;5157413;27;20715;-68
2022/03/11 03:50:15;;;;;;;2.83;2.63;;;;;;;;;;5155914;27;20296;-68
2022/03/11 03:53:02;;;;;;;2.77;2.57;;;;;;;;;;5162922;27;20719;-68
2022/03/11 03:55:49;;;;;;;2.93;2.73;;;;;;;;;;5156277;27;20258;-68
2022/03/11 03:58:36;;;;;;;2.87;2.67;;;;;;;;;;5153445;27;20200;-68
2022/03/11 04:01:23;;;;;;;3.00;2.80;;;;;;;;;;5157062;27;20209;-67
2022/03/11 04:04:12;;;;;;;2.37;2.27;;;;;;;;;;5159116;27;20291;-67
2022/03/11 04:06:59;;;;;;;2.83;2.63;;;;;;;;;;5159078;27;20591;-68
2022/03/11 04:09:47;;;;;;;2.70;2.60;;;;;;;;;;5158116;27;20756;-73
2022/03/11 04:12:34;;;;;;;2.57;2.47;;;;;;;;;;5159712;27;20279;-68
2022/03/11 04:15:20;;;;;;;2.80;2.60;;;;;;;;;;5149815;27;20321;-67
2022/03/11 04:18:07;;;;;;;2.87;2.67;;;;;;;;;;5151216;27;20228;-68
2022/03/11 04:20:56;;;;;;;3.13;2.83;;;;;;;;;;5149612;27;20748;-68
2022/03/11 04:23:43;;;;;;;3.00;2.80;;;;;;;;;;5150873;27;20258;-67
2022/03/11 04:26:30;;;;;;;2.97;2.77;;;;;;;;;;5154395;27;20316;-67
2022/03/11 04:29:17;;;;;;;2.53;2.43;;;;;;;;;;5153886;27;20290;-67
2022/03/11 04:32:04;;;;;;;2.73;2.53;;;;;;;;;;5159088;27;20204;-67
2022/03/11 04:34:51;;;;;;;3.10;2.80;;;;;;;;;;5155001;27;20290;-68
2022/03/11 04:37:40;;;;;;;2.77;2.57;;;;;;;;;;5152883;27;20200;-67
2022/03/11 04:40:27;;;;;;;2.93;2.73;;;;;;;;;;5157256;27;20234;-67
2022/03/11 04:43:14;;;;;;;3.10;2.87;;;;;;;;;;5152431;27;20274;-68
2022/03/11 04:46:01;;;;;;;3.00;2.80;;;;;;;;;;5155858;27;20232;-68
2022/03/11 04:48:49;;;;;;;2.80;2.60;;;;;;;;;;5157238;27;20284;-68
2022/03/11 04:51:36;;;;;;;3.00;2.80;;;;;;;;;;5154786;27;20207;-68
2022/03/11 04:54:25;;;;;;;2.90;2.70;;;;;;;;;;5159548;27;20292;-70
2022/03/11 04:57:12;;;;;;;2.93;2.73;;;;;;;;;;5154997;27;20284;-67
2022/03/11 04:59:59;;;;;;;3.10;2.90;;;;;;;;;;5154112;27;20201;-68
2022/03/11 05:02:46;;;;;;;3.03;2.83;;;;;;;;;;5159107;27;20204;-67
2022/03/11 05:05:33;;;;;;;2.90;2.70;;;;;;;;;;5153233;27;20664;-67
2022/03/11 05:08:20;;;;;;;3.00;2.80;;;;;;;;;;5149476;27;20249;-67
2022/03/11 05:11:08;;;;;;;2.90;2.70;;;;;;;;;;5149945;27;20228;-68
2022/03/11 05:13:55;;;;;;;3.13;2.93;;;;;;;;;;5154216;27;20229;-67
2022/03/11 05:16:42;;;;;;;3.33;3.03;;;;;;;;;;5159000;27;20355;-67
2022/03/11 05:19:29;;;;;;;2.80;2.60;;;;;;;;;;5153200;27;20236;-67
2022/03/11 05:22:18;;;;;;;3.30;3.10;;;;;;;;;;5150072;27;20208;-68
2022/03/11 05:25:06;;;;;;;2.97;2.77;;;;;;;;;;5159031;27;20687;-68
2022/03/11 05:27:54;;;;;;;3.00;2.80;;;;;;;;;;5159019;27;20272;-67
2022/03/11 05:30:41;;;;;;;3.10;2.90;;;;;;;;;;5161107;27;20192;-67
2022/03/11 05:33:28;;;;;;;3.47;3.10;;;;;;;;;;5161175;27;20673;-68
2022/03/11 05:36:15;;;;;;;2.67;2.57;;;;;;;;;;5157105;27;20418;-68
2022/03/11 05:39:02;;;;;;;3.10;2.90;;;;;;;;;;5156621;27;20202;-68
2022/03/11 05:41:50;;;;;;;3.07;2.87;;;;;;;;;;5157540;27;20230;-68
2022/03/11 05:44:38;;;;;;;3.20;3.00;;;;;;;;;;5159641;27;20272;-67
2022/03/11 05:47:25;;;;;;;3.10;2.90;;;;;;;;;;5152678;27;20233;-68
2022/03/11 05:50:12;;;;;;;3.33;3.13;;;;;;;;;;5156524;27;20328;-67
2022/03/11 05:52:59;;;;;;;3.40;3.20;;;;;;;;;;5155288;27;20692;-67
2022/03/11 05:55:46;;;;;;;3.60;3.30;;;;;;;;;;5160084;27;20549;-67
2022/03/11 05:58:33;;;;;;;3.87;3.57;;;;;;;;;;5160576;27;20205;-68
2022/03/11 06:01:22;;;;;;;3.50;3.30;;;;;;;;;;5161838;27;20284;-68
2022/03/11 06:04:09;;;;;;;3.23;3.03;;;;;;;;;;5155952;27;20240;-68
2022/03/11 06:06:55;;;;;;;3.90;3.60;;;;;;;;;;5154373;27;20259;-67
2022/03/11 06:09:42;;;;;;;4.20;3.90;;;;;;;;;;5150576;27;20624;-68
2022/03/11 06:12:29;;;;;;;3.80;3.50;;;;;;;;;;5156945;27;20208;-68
2022/03/11 06:15:16;;;;;;;3.80;3.50;;;;;;;;;;5157259;27;20736;-68
2022/03/11 06:18:05;;;;;;;3.30;3.10;;;;;;;;;;5159442;27;20697;-68
2022/03/11 06:20:51;;;;;;;3.70;3.50;;;;;;;;;;5157580;27;20209;-69
2022/03/11 06:23:38;;;;;;;3.93;3.63;;;;;;;;;;5159902;27;20212;-69
2022/03/11 06:26:25;;;;;;;4.37;3.50;;;;;;;;;;5159906;27;20253;-68
2022/03/11 06:29:12;;;;;;;4.00;3.70;;;;;;;;;;5150107;27;20231;-69
2022/03/11 06:31:59;;;;;;;3.37;3.17;;;;;;;;;;5158403;27;20207;-68
2022/03/11 06:34:49;;;;;;;3.53;3.33;;;;;;;;;;5154295;27;20280;-68
2022/03/11 06:37:36;;;;;;;3.70;3.50;;;;;;;;;;5159324;27;20782;-68
2022/03/11 06:40:23;;;;;;;3.87;3.63;;;;;;;;;;5155985;27;20210;-68
2022/03/11 06:43:11;;;;;;;3.70;3.50;;;;;;;;;;5153693;27;20338;-68
2022/03/11 06:45:58;;;;;;;3.93;3.63;;;;;;;;;;5158821;27;20234;-68
2022/03/11 06:48:45;;;;;;;3.57;3.37;;;;;;;;;;5154649;27;20278;-68
2022/03/11 06:51:33;;;;;;;3.80;3.60;;;;;;;;;;5158630;27;20282;-68
2022/03/11 06:54:20;;;;;;;3.93;3.63;;;;;;;;;;5161297;27;20586;-68
2022/03/11 06:57:08;;;;;;;3.87;3.60;;;;;;;;;;5159054;27;20202;-68
2022/03/11 06:59:54;;;;;;;3.40;3.20;;;;;;;;;;5160088;27;20205;-68
2022/03/11 07:02:42;;;;;;;3.40;3.20;;;;;;;;;;5149933;27;20254;-68
2022/03/11 07:05:29;;;;;;;3.43;3.23;;;;;;;;;;5160634;27;20208;-68
2022/03/11 07:08:17;;;;;;;3.80;3.53;;;;;;;;;;5156163;27;20230;-68
2022/03/11 07:11:04;;;;;;;4.10;3.70;;;;;;;;;;5155507;27;20822;-68
2022/03/11 07:13:51;;;;;;;3.90;3.70;;;;;;;;;;5151538;27;20677;-66
2022/03/11 07:16:38;;;;;;;3.85;3.58;;;;;;;;;;5154558;27;20207;-67
2022/03/11 07:19:24;;;;;;;3.78;3.58;;;;;;;;;;5157427;27;20281;-67
2022/03/11 07:22:11;;;;;;;3.75;3.53;;;;;;;;;;5159637;27;20300;-66
2022/03/11 07:25:00;;;;;;;3.60;3.40;;;;;;;;;;5148122;27;20276;-66
2022/03/11 07:27:48;;;;;;;4.00;3.70;;;;;;;;;;5151079;27;20252;-66
2022/03/11 07:30:35;;;;;;;3.90;3.60;;;;;;;;;;5161730;27;20215;-64
2022/03/11 07:33:22;;;;;;;3.85;3.45;;;;;;;;;;5158556;27;20205;-65
2022/03/11 07:36:09;;;;;;;3.55;3.35;;;;;;;;;;5159526;27;20231;-65
2022/03/11 07:38:56;;;;;;;3.75;3.53;;;;;;;;;;5160951;27;20326;-65
2022/03/11 07:41:45;;;;;;;3.55;3.30;;;;;;;;;;5159100;27;20247;-66
2022/03/11 07:44:33;;;;;;;3.55;3.35;;;;;;;;;;5153033;27;20287;-68
2022/03/11 07:47:19;;;;;;;3.72;3.50;;;;;;;;;;5159744;27;20248;-66
2022/03/11 07:50:07;;;;;;;3.45;3.25;;;;;;;;;;5152272;27;20232;-67
2022/03/11 07:52:54;;;;;;;3.80;3.60;;;;;;;;;;5156902;27;20208;-67
2022/03/11 07:55:41;;;;;;;3.65;3.45;;;;;;;;;;5160056;27;20208;-67
2022/03/11 07:58:30;;;;;;;3.58;3.38;;;;;;;;;;5154638;27;20207;-67
2022/03/11 08:01:16;;;;;;;3.47;3.28;;;;;;;;;;5145022;27;20279;-67
2022/03/11 08:04:04;;;;;;;3.40;3.20;;;;;;;;;;5160102;27;20239;-67
2022/03/11 08:06:52;;;;;;;4.10;3.80;;;;;;;;;;5155670;27;20674;-67
2022/03/11 08:09:39;;;;;;;4.53;3.20;;;;;;;;;;5157289;27;20354;-67
2022/03/11 08:12:26;;;;;;;3.90;3.60;;;;;;;;;;5153435;27;20664;-67
2022/03/11 08:15:16;;;;;;;3.60;3.40;;;;;;;;;;5154292;27;20210;-67
2022/03/11 08:18:04;;;;;;;3.53;3.33;;;;;;;;;;5163305;27;20354;-67
2022/03/11 08:20:51;;;;;;;3.97;3.53;;;;;;;;;;5146009;27;20305;-67
2022/03/11 08:23:39;;;;;;;3.50;3.20;;;;;;;;;;5162752;27;20687;-67
2022/03/11 08:26:27;;;;;;;3.37;3.17;;;;;;;;;;5158444;27;20433;-67
2022/03/11 08:29:14;;;;;;;3.50;3.20;;;;;;;;;;5160063;27;20824;-68
2022/03/11 08:32:03;;;;;;;3.77;3.47;;;;;;;;;;5159540;27;20207;-68
2022/03/11 08:34:50;;;;;;;4.00;3.70;;;;;;;;;;5153319;27;20214;-68
2022/03/11 08:37:37;;;;;;;3.33;3.13;;;;;;;;;;5152973;27;20205;-67
2022/03/11 08:40:26;;;;;;;3.80;3.50;;;;;;;;;;5146472;27;20212;-67
2022/03/11 08:43:13;;;;;;;3.40;3.20;;;;;;;;;;5159658;27;20242;-67
2022/03/11 08:46:01;;;;;;;3.50;3.30;;;;;;;;;;5158328;27;20253;-68
2022/03/11 08:48:49;;;;;;;3.20;3.00;;;;;;;;;;5155045;27;20230;-68
2022/03/11 08:51:36;;;;;;;3.63;3.33;;;;;;;;;;5157401;27;20214;-67
2022/03/11 08:54:23;;;;;;;3.23;3.03;;;;;;;;;;5152638;27;20286;-67
2022/03/11 08:57:10;;;;;;;3.67;3.47;;;;;;;;;;5155847;27;20285;-67
2022/03/11 08:59:57;;;;;;;4.03;3.50;;;;;;;;;;5162376;27;20661;-68
2022/03/11 09:02:44;;;;;;;3.70;3.40;;;;;;;;;;5159004;27;20224;-68
2022/03/11 09:05:33;;;;;;;3.50;3.30;;;;;;;;;;5162422;27;20201;-67
2022/03/11 09:08:20;;;;;;;4.10;3.57;;;;;;;;;;5155393;27;20235;-67
2022/03/11 09:11:07;;;;;;;3.40;3.10;;;;;;;;;;5153956;27;20221;-68
2022/03/11 09:13:54;;;;;;;3.40;3.17;;;;;;;;;;5147797;27;20212;-68
2022/03/11 09:16:41;;;;;;;3.47;3.17;;;;;;;;;;5155657;27;20204;-69
2022/03/11 09:19:28;;;;;;;3.70;3.40;;;;;;;;;;5165245;27;20269;-67
2022/03/11 09:22:18;;;;;;;3.40;3.20;;;;;;;;;;5142306;27;20197;-67
2022/03/11 09:25:07;;;;;;;3.00;2.80;;;;;;;;;;5163500;27;20620;-67
2022/03/11 09:27:54;;;;;;;5.50;3.37;;;;;;;;;;5152409;27;20243;-68
2022/03/11 09:30:41;;;;;;;3.80;3.50;;;;;;;;;;5163381;27;20211;-68
2022/03/11 09:33:27;;;;;;;3.50;3.30;;;;;;;;;;5156434;27;20215;-68
2022/03/11 09:36:14;;;;;;;3.30;3.10;;;;;;;;;;5155052;27;20201;-68
2022/03/11 09:39:03;;;;;;;3.40;3.20;;;;;;;;;;5161997;27;20233;-68
2022/03/11 09:41:50;;;;;;;3.83;3.33;;;;;;;;;;5157886;27;20649;-68
2022/03/11 09:44:39;;;;;;;3.07;2.87;;;;;;;;;;5157404;27;20554;-68
2022/03/11 09:47:26;;;;;;;3.27;3.03;;;;;;;;;;5159799;27;20205;-68
2022/03/11 09:50:13;;;;;;;3.10;2.90;;;;;;;;;;5162834;27;20288;-68
2022/03/11 09:53:00;;;;;;;3.00;2.80;;;;;;;;;;5156754;27;20774;-69
2022/03/11 09:55:48;;;;;;;3.20;3.00;;;;;;;;;;5145357;27;20233;-68
2022/03/11 09:58:35;;;;;;;4.57;3.27;;;;;;;;;;5163921;27;20253;-68
2022/03/11 10:01:23;;;;;;;3.40;3.20;;;;;;;;;;5164689;27;20284;-68
2022/03/11 10:04:11;;;;;;;3.20;3.00;;;;;;;;;;5157961;27;20284;-68
2022/03/11 10:06:58;;;;;;;3.00;2.80;;;;;;;;;;5154150;27;20202;-68
2022/03/11 10:09:45;;;;;;;3.43;3.00;;;;;;;;;;5158908;27;20318;-68
2022/03/11 10:12:33;;;;;;;2.83;2.63;;;;;;;;;;5153430;27;20232;-68
2022/03/11 10:15:28;;;;;;;3.30;3.00;;;;;;;;;;5157752;27;20208;-67
2022/03/11 10:18:15;;;;;;;2.90;2.70;;;;;;;;;;5162949;27;20208;-68
2022/03/11 10:21:08;;;;;;;3.13;2.83;;;;;;;;;;5165322;27;20669;-68
2022/03/11 10:23:55;;;;;;;3.17;2.87;;;;;;;;;;5161520;27;20230;-68
2022/03/11 10:26:44;;;;;;;3.07;2.87;;;;;;;;;;5156341;27;20214;-68
2022/03/11 10:29:34;;;;;;;2.80;2.60;;;;;;;;;;5162975;27;20230;-68
2022/03/11 10:32:25;;;;;;;2.80;2.60;;;;;;;;;;5148467;27;20207;-68
2022/03/11 10:35:14;;;;;;;2.93;2.73;;;;;;;;;;5153341;27;20657;-68
2022/03/11 10:38:03;;;;;;;3.00;2.80;;;;;;;;;;5153250;27;20221;-68
2022/03/11 10:40:52;;;;;;;3.10;2.50;;;;;;;;;;5160087;27;20698;-70
2022/03/11 10:43:39;;;;;;;2.90;2.70;;;;;;;;;;5165122;27;20238;-68
2022/03/11 10:46:27;;;;;;;2.60;2.40;;;;;;;;;;5156781;27;20233;-68
2022/03/11 10:49:24;;;;;;;2.57;2.37;;;;;;;;;;5156008;27;20229;-69
2022/03/11 10:52:11;;;;;;;2.90;2.63;;;;;;;;;;5159220;27;20231;-67
2022/03/11 10:54:58;;;;;;;2.50;2.30;;;;;;;;;;5154962;27;20694;-69
2022/03/11 10:57:46;;;;;;;2.70;2.50;;;;;;;;;;5157383;27;20266;-68
2022/03/11 11:00:35;;;;;;;2.60;2.40;;;;;;;;;;5161112;27;20250;-68
2022/03/11 11:03:24;;;;;;;2.70;2.50;;;;;;;;;;5155343;27;20211;-68
2022/03/11 11:06:12;;;;;;;2.37;2.27;;;;;;;;;;5156059;27;20209;-68
2022/03/11 11:09:00;;;;;;;3.20;2.20;;;;;;;;;;5164275;27;20272;-68
2022/03/11 11:11:47;;;;;;;2.17;2.07;;;;;;;;;;5158255;27;20277;-68
2022/03/11 11:14:34;;;;;;;2.43;2.30;;;;;;;;;;5149047;27;20272;-68
2022/03/11 11:17:21;;;;;;;2.40;2.20;;;;;;;;;;5159754;27;20235;-68
2022/03/11 11:20:20;;;;;;;2.63;2.40;;;;;;;;;;5148512;27;20286;-67
2022/03/11 11:23:09;;;;;;;2.07;1.97;;;;;;;;;;5157927;27;20233;-67
2022/03/11 11:25:57;;;;;;;2.60;2.50;;;;;;;;;;5151539;27;20283;-67
2022/03/11 11:28:44;;;;;;;2.10;2.00;;;;;;;;;;5153841;27;20230;-68
2022/03/11 11:31:32;;;;;;;2.30;2.10;;;;;;;;;;5154361;27;20306;-68
2022/03/11 11:34:27;;;;;;;2.30;2.20;;;;;;;;;;5151547;27;20322;-67
2022/03/11 11:37:39;;;;;;;2.03;1.90;;;;;;;;;;5158483;27;20778;-67
2022/03/11 11:40:28;;;;;;;2.10;2.00;;;;;;;;;;5160216;27;20203;-67
2022/03/11 11:43:29;;;;;;;2.10;2.00;;;;;;;;;;5162528;27;20721;-67
2022/03/11 11:46:20;;;;;;;2.17;2.07;;;;;;;;;;5140902;27;20207;-67
2022/03/11 11:49:13;;;;;;;1.93;1.83;;;;;;;;;;5156552;27;20220;-67
2022/03/11 11:52:01;;;;;;;2.23;2.13;;;;;;;;;;5157670;27;20232;-67
2022/03/11 11:54:49;;;;;;;2.37;2.17;;;;;;;;;;5156591;27;20255;-67
2022/03/11 11:57:37;;;;;;;1.80;1.70;;;;;;;;;;5147680;27;20253;-68
2022/03/11 12:00:32;;;;;;;2.20;2.00;;;;;;;;;;5149041;27;20607;-67
2022/03/11 12:03:19;;;;;;;2.30;2.20;;;;;;;;;;5152826;27;20574;-67
2022/03/11 12:06:06;;;;;;;1.93;1.83;;;;;;;;;;5145382;27;20204;-67
2022/03/11 12:08:53;;;;;;;2.33;2.13;;;;;;;;;;5159940;27;20749;-67
2022/03/11 12:11:43;;;;;;;2.10;2.00;;;;;;;;;;5153562;27;20211;-67
2022/03/11 12:14:30;;;;;;;1.93;1.83;;;;;;;;;;5154295;27;20235;-67
2022/03/11 12:17:36;;;;;;;3.50;2.10;;;;;;;;;;5152777;27;20211;-67
2022/03/11 12:20:29;;;;;;;2.23;2.10;;;;;;;;;;5156804;27;20199;-67
2022/03/11 12:23:20;;;;;;;2.40;2.30;;;;;;;;;;5159462;27;20212;-67
2022/03/11 12:26:12;;;;;;;2.03;1.90;;;;;;;;;;5139918;27;20288;-67
2022/03/11 12:29:01;;;;;;;2.00;1.90;;;;;;;;;;5158298;27;20306;-67
2022/03/11 12:31:48;;;;;;;2.03;1.93;;;;;;;;;;5154510;27;20208;-66
2022/03/11 12:34:35;;;;;;;1.83;1.73;;;;;;;;;;5155161;27;20287;-67
2022/03/11 12:37:23;;;;;;;2.00;1.90;;;;;;;;;;5152174;27;20212;-67
2022/03/11 12:40:10;;;;;;;2.07;1.97;;;;;;;;;;5152811;27;20204;-66
2022/03/11 12:43:00;;;;;;;2.10;1.90;;;;;;;;;;5157144;27;20787;-67
2022/03/11 12:45:51;;;;;;;2.10;2.00;;;;;;;;;;5150979;27;20204;-68
2022/03/11 12:48:40;;;;;;;2.13;1.97;;;;;;;;;;5154637;27;20696;-66
2022/03/11 12:51:27;;;;;;;1.90;1.80;;;;;;;;;;5156833;27;20200;-67
2022/03/11 12:54:17;;;;;;;1.93;1.83;;;;;;;;;;5156099;27;20722;-67
2022/03/11 12:57:05;;;;;;;2.00;1.90;;;;;;;;;;5152187;27;20211;-66
2022/03/11 12:59:51;;;;;;;1.70;1.60;;;;;;;;;;5148371;27;20199;-67
2022/03/11 13:02:40;;;;;;;1.87;1.77;;;;;;;;;;5155526;27;20293;-66
2022/03/11 13:05:28;;;;;;;2.30;2.10;;;;;;;;;;5155772;27;20291;-66
2022/03/11 13:08:17;;;;;;;2.43;1.90;;;;;;;;;;5153285;27;20200;-67
2022/03/11 13:11:06;;;;;;;2.10;2.00;;;;;;;;;;5149220;27;20286;-66
2022/03/11 13:13:54;;;;;;;3.27;2.10;;;;;;;;;;5157988;27;20211;-67
2022/03/11 13:16:41;;;;;;;1.70;1.60;;;;;;;;;;5156528;27;20206;-66
2022/03/11 13:19:29;;;;;;;1.90;1.80;;;;;;;;;;5159106;27;20250;-66
2022/03/11 13:22:24;;;;;;;1.77;1.67;;;;;;;;;;5153579;27;20236;-66
2022/03/11 13:25:11;;;;;;;1.60;1.50;;;;;;;;;;5146859;27;20210;-67
2022/03/11 13:27:59;;;;;;;1.83;1.73;;;;;;;;;;5156092;27;20686;-67
2022/03/11 13:30:47;;;;;;;1.90;1.80;;;;;;;;;;5152326;27;20330;-67
2022/03/11 13:33:35;;;;;;;1.90;1.80;;;;;;;;;;5153635;27;20350;-67
2022/03/11 13:36:25;;;;;;;2.00;1.73;;;;;;;;;;5148322;27;20662;-67
2022/03/11 13:39:13;;;;;;;1.73;1.63;;;;;;;;;;5151051;27;20662;-67
2022/03/11 13:42:00;;;;;;;2.10;1.83;;;;;;;;;;5156525;27;20280;-67
2022/03/11 13:44:47;;;;;;;2.07;1.97;;;;;;;;;;5156273;27;20674;-67
2022/03/11 13:47:34;;;;;;;1.90;1.80;;;;;;;;;;5162803;27;20333;-67
2022/03/11 13:50:24;;;;;;;2.00;1.90;;;;;;;;;;5157977;27;20712;-67
2022/03/11 13:53:13;;;;;;;1.90;1.80;;;;;;;;;;5159638;27;20285;-67
2022/03/11 13:56:05;;;;;;;1.87;1.70;;;;;;;;;;5157769;27;20215;-67
2022/03/11 13:58:52;;;;;;;1.93;1.73;;;;;;;;;;5154807;27;20209;-67
2022/03/11 14:01:40;;;;;;;2.20;1.80;;;;;;;;;;5161068;27;20309;-67
2022/03/11 14:04:27;;;;;;;1.97;1.87;;;;;;;;;;5155914;27;20212;-67
2022/03/11 14:07:18;;;;;;;2.30;2.03;;;;;;;;;;5157025;27;20604;-67
2022/03/11 14:10:14;;;;;;;2.20;1.80;;;;;;;;;;5152956;27;20866;-67
2022/03/11 14:13:02;;;;;;;1.67;1.57;;;;;;;;;;5157100;27;20204;-67
2022/03/11 14:15:50;;;;;;;1.80;1.70;;;;;;;;;;5152900;27;20252;-68
2022/03/11 14:18:38;;;;;;;1.70;1.57;;;;;;;;;;5156112;27;20688;-67
2022/03/11 14:21:25;;;;;;;1.90;1.80;;;;;;;;;;5160188;27;20222;-68
2022/03/11 14:24:12;;;;;;;2.97;1.83;;;;;;;;;;5156371;27;20206;-67
2022/03/11 14:27:00;;;;;;;1.97;1.87;;;;;;;;;;5156042;27;20209;-68
2022/03/11 14:29:47;;;;;;;2.93;1.80;;;;;;;;;;5157312;27;20880;-68
2022/03/11 14:32:35;;;;;;;3.13;1.70;;;;;;;;;;5154822;27;20210;-68
2022/03/11 14:35:22;;;;;;;1.90;1.80;;;;;;;;;;5161235;27;20269;-68
2022/03/11 14:38:11;;;;;;;2.63;1.87;;;;;;;;;;5154880;27;20682;-68
2022/03/11 14:40:58;;;;;;;1.83;1.73;;;;;;;;;;5162513;27;20228;-68
2022/03/11 14:43:47;;;;;;;1.60;1.50;;;;;;;;;;5160098;27;20287;-68
2022/03/11 14:46:35;;;;;;;2.00;1.80;;;;;;;;;;5162734;27;20684;-68
2022/03/11 14:49:22;;;;;;;1.93;1.83;;;;;;;;;;5160057;27;20676;-68
2022/03/11 14:52:11;;;;;;;1.93;1.83;;;;;;;;;;5156735;27;20264;-68
2022/03/11 14:54:57;;;;;;;1.77;1.67;;;;;;;;;;5157859;27;20200;-68
2022/03/11 14:57:45;;;;;;;2.00;1.90;;;;;;;;;;5156307;27;20673;-68
2022/03/11 15:00:33;;;;;;;1.80;1.70;;;;;;;;;;5157587;27;20204;-68
2022/03/11 15:03:20;;;;;;;2.50;2.10;;;;;;;;;;5158439;27;20690;-69
2022/03/11 15:06:07;;;;;;;1.90;1.77;;;;;;;;;;5154610;27;20208;-68
2022/03/11 15:08:54;;;;;;;2.57;1.77;;;;;;;;;;5157299;27;20211;-68
2022/03/11 15:11:41;;;;;;;2.00;1.80;;;;;;;;;;5150404;27;20259;-67
2022/03/11 15:14:28;;;;;;;3.23;2.07;;;;;;;;;;5149714;27;20299;-68
2022/03/11 15:17:16;;;;;;;1.60;1.30;;;;;;;;;;5155320;27;20694;-68
2022/03/11 15:20:05;;;;;;;2.23;1.97;;;;;;;;;;5155331;27;20269;-67
2022/03/11 15:22:52;;;;;;;1.40;1.37;;;;;;;;;;5153249;27;20202;-67
2022/03/11 15:25:39;;;;;;;1.80;1.70;;;;;;;;;;5155587;27;20290;-68
2022/03/11 15:28:25;;;;;;;1.80;1.70;;;;;;;;;;5152782;27;20750;-68
2022/03/11 15:31:12;;;;;;;1.70;1.60;;;;;;;;;;5150782;27;20665;-69
2022/03/11 15:34:01;;;;;;;2.00;1.53;;;;;;;;;;5159167;27;20662;-67
2022/03/11 15:36:48;;;;;;;1.70;1.60;;;;;;;;;;5156490;27;20575;-67
2022/03/11 15:39:35;;;;;;;3.37;1.80;;;;;;;;;;5158299;27;20720;-67
2022/03/11 15:42:23;;;;;;;1.70;1.60;;;;;;;;;;5162711;27;20340;-68
2022/03/11 15:45:10;;;;;;;1.57;1.50;;;;;;;;;;5151831;27;20548;-68
2022/03/11 15:47:58;;;;;;;1.70;1.60;;;;;;;;;;5159356;27;20203;-68
2022/03/11 15:50:47;;;;;;;2.10;1.70;;;;;;;;;;5158120;27;20230;-67
2022/03/11 15:53:33;;;;;;;1.57;1.50;;;;;;;;;;5158709;27;20351;-68
2022/03/11 15:56:20;;;;;;;1.67;1.57;;;;;;;;;;5159780;27;20211;-68
2022/03/11 15:59:07;;;;;;;1.70;1.60;;;;;;;;;;5155632;27;20262;-68
2022/03/11 16:01:54;;;;;;;1.60;1.50;;;;;;;;;;5151538;27;20723;-68
2022/03/11 16:04:41;;;;;;;1.63;1.43;;;;;;;;;;5149881;27;20237;-68
2022/03/11 16:07:29;;;;;;;1.57;1.47;;;;;;;;;;5157630;27;20281;-67
2022/03/11 16:10:18;;;;;;;1.77;1.67;;;;;;;;;;5161808;27;20350;-67
2022/03/11 16:13:05;;;;;;;1.60;1.50;;;;;;;;;;5153642;27;20201;-67
2022/03/11 16:15:52;;;;;;;1.80;1.70;;;;;;;;;;5149258;27;20235;-67
2022/03/11 16:18:39;;;;;;;1.80;1.70;;;;;;;;;;5150951;27;20679;-67
2022/03/11 16:21:26;;;;;;;1.77;1.67;;;;;;;;;;5158391;27;20788;-68
2022/03/11 16:24:14;;;;;;;1.60;1.50;;;;;;;;;;5151358;27;20855;-68
2022/03/11 16:27:01;;;;;;;2.73;1.30;;;;;;;;;;5159562;27;20287;-67
2022/03/11 16:29:49;;;;;;;1.70;1.60;;;;;;;;;;5167142;27;20230;-68
2022/03/11 16:32:37;;;;;;;2.00;1.47;;;;;;;;;;5156253;27;20728;-68
2022/03/11 16:35:24;;;;;;;2.00;1.37;;;;;;;;;;5158047;27;20217;-68
2022/03/11 16:38:11;;;;;;;1.50;1.40;;;;;;;;;;5156248;27;20657;-69
2022/03/11 16:40:59;;;;;;;1.50;1.43;;;;;;;;;;5156911;27;20213;-68
2022/03/11 16:43:46;;;;;;;1.50;1.40;;;;;;;;;;5142928;27;20213;-68
2022/03/11 16:46:33;;;;;;;1.30;1.30;;;;;;;;;;5156522;27;20249;-69